Dyersburg, Tennessee
Current Conditions -  °F | °C
As of 2:55 AM on Saturday 25 Oct 2014 (Local Time) from KDYR Reporting Station
Few Clouds Few Clouds  
Wind Chill: 52°   Ceiling: Unl
Heat Index: 52°   Visibility: 7mi
Dew Point: 43°   Wind: 3mph
Humidity: 71%   Direction: 170°S
Pressure: 30.08"   Gusts: NA
Location:  36.03°N, 89.38°W
Report Text: KDYR 250755Z 17003KT 7SM FEW047 11/06 A3008 RMK AO1
Loading
Personal Weather Stations






























Interactive Weather Map
Tropical Storm Tracking
New forecast layout! Learn more

10-Day Weather Forecast

Advertisements
Track Severe Weather on mobile